Time;durP1;ratioP1;P1;durP2;ratioP2;P2;SDS_P1;SDS_P2;PMS_P1;PMS_P2;Temp;Humidity;BMP_temperature;BMP_pressure;BME280_temperature;BME280_humidity;BME280_pressure;Samples;Min_cycle;Max_cycle;Signal;HPM_P1;HPM_P2
2021/07/31 00:04:55;;;;;;;5.15;3.00;;;;;;;15.43;70.22;99451.94;10472339;28;20232;-76
2021/07/31 00:09:58;;;;;;;5.70;3.22;;;;;;;15.43;69.56;99449.22;10476151;28;21522;-76
2021/07/31 00:15:02;;;;;;;3.72;2.70;;;;;;;15.37;68.92;99445.38;10477341;28;20238;-76
2021/07/31 00:20:06;;;;;;;4.07;2.67;;;;;;;15.34;68.60;99439.44;10477027;28;20260;-76
2021/07/31 00:25:10;;;;;;;6.97;2.72;;;;;;;15.44;68.12;99438.25;10477645;28;20683;-76
2021/07/31 00:30:14;;;;;;;4.50;2.50;;;;;;;15.28;67.89;99427.47;10478753;28;20244;-76
2021/07/31 00:35:17;;;;;;;2.42;2.15;;;;;;;15.13;67.03;99434.66;10477365;28;20866;-77
2021/07/31 00:40:20;;;;;;;2.97;2.40;;;;;;;15.26;65.40;99432.22;10479163;28;20274;-76
2021/07/31 00:45:24;;;;;;;7.63;3.13;;;;;;;15.21;65.25;99442.72;10476112;28;20228;-76
2021/07/31 00:50:27;;;;;;;6.40;2.30;;;;;;;15.12;65.09;99425.69;10477124;28;20235;-77
2021/07/31 00:55:31;;;;;;;6.03;2.58;;;;;;;15.29;64.63;99431.03;10476808;28;20231;-77
2021/07/31 01:00:36;;;;;;;7.03;2.20;;;;;;;14.96;64.33;99425.78;10457472;28;20240;-76
2021/07/31 01:05:39;;;;;;;5.65;2.40;;;;;;;15.09;64.11;99428.75;10475391;28;20840;-77
2021/07/31 01:10:42;;;;;;;5.18;2.30;;;;;;;15.16;63.92;99431.59;10476004;28;20412;-76
2021/07/31 01:16:01;;;;;;;7.30;2.72;;;;;;;15.01;63.72;99436.91;10456982;28;20228;-76
2021/07/31 01:21:04;;;;;;;4.32;2.33;;;;;;;15.07;63.56;99436.22;10476756;28;20361;-76
2021/07/31 01:26:09;;;;;;;4.63;2.30;;;;;;;14.88;64.34;99437.47;10456984;28;20691;-76
2021/07/31 01:31:13;;;;;;;5.43;2.40;;;;;;;14.85;64.84;99437.00;10456994;28;20247;-76
2021/07/31 01:36:17;;;;;;;2.85;2.28;;;;;;;14.74;65.20;99443.63;10476386;28;20886;-75
2021/07/31 01:41:21;;;;;;;5.07;2.35;;;;;;;14.69;65.72;99430.59;10457094;28;20228;-75
2021/07/31 01:46:24;;;;;;;2.38;2.03;;;;;;;14.55;65.93;99425.94;10457492;28;20237;-75
2021/07/31 01:51:28;;;;;;;7.88;2.28;;;;;;;14.19;66.48;99429.03;10457845;28;20247;-75
2021/07/31 01:56:33;;;;;;;5.97;2.25;;;;;;;14.43;65.56;99430.03;10477431;28;20293;-77
2021/07/31 02:01:39;;;;;;;3.63;1.70;;;;;;;14.19;65.13;99420.91;10472071;28;20232;-76
2021/07/31 02:06:43;;;;;;;2.83;2.20;;;;;;;14.36;64.33;99406.34;10470058;28;20242;-75
2021/07/31 02:11:48;;;;;;;4.68;2.60;;;;;;;14.51;63.45;99408.41;10473119;28;20229;-76
2021/07/31 02:16:52;;;;;;;7.57;2.17;;;;;;;14.41;63.65;99407.75;10473978;28;20774;-77
2021/07/31 02:21:54;;;;;;;5.93;2.35;;;;;;;14.26;63.90;99400.31;10474203;28;20264;-77
2021/07/31 02:27:19;;;;;;;7.90;2.40;;;;;;;14.31;63.40;99399.78;10402136;28;20220;-76
2021/07/31 02:32:34;;;;;;;3.10;2.22;;;;;;;14.41;62.98;99386.13;10460650;28;21415;-76
2021/07/31 02:37:39;;;;;;;5.07;2.33;;;;;;;14.49;62.60;99391.50;10453251;28;20236;-75
2021/07/31 02:42:44;;;;;;;2.88;2.00;;;;;;;14.44;62.79;99391.19;10461076;28;20725;-76
2021/07/31 02:47:47;;;;;;;3.05;2.00;;;;;;;14.67;61.95;99393.97;10512387;28;20242;-76
2021/07/31 02:52:50;;;;;;;2.85;1.98;;;;;;;14.59;62.21;99381.34;10515654;28;20558;-76
2021/07/31 02:57:54;;;;;;;3.47;2.22;;;;;;;14.64;62.39;99375.41;10512562;28;20239;-76
2021/07/31 03:02:57;;;;;;;3.00;2.22;;;;;;;14.70;61.92;99369.28;10512654;28;20235;-75
2021/07/31 03:08:01;;;;;;;3.63;1.90;;;;;;;14.89;61.79;99357.19;10513507;28;20223;-75
2021/07/31 03:13:06;;;;;;;2.15;1.83;;;;;;;14.81;61.88;99366.22;10511564;28;20289;-76
2021/07/31 03:18:09;;;;;;;2.97;1.83;;;;;;;14.69;62.22;99346.81;10511093;28;20232;-75
2021/07/31 03:23:13;;;;;;;4.45;2.08;;;;;;;14.60;62.14;99346.03;10512432;28;20262;-76
2021/07/31 03:28:18;;;;;;;3.22;2.38;;;;;;;14.38;63.35;99355.72;10512944;28;21548;-75
2021/07/31 03:33:28;;;;;;;3.83;1.90;;;;;;;14.55;63.02;99358.38;10513211;28;20243;-75
2021/07/31 03:38:32;;;;;;;3.47;2.00;;;;;;;14.31;63.61;99356.56;10494295;28;20292;-75
2021/07/31 03:43:36;;;;;;;4.13;2.05;;;;;;;14.38;63.35;99365.66;10496167;28;20238;-75
2021/07/31 03:48:42;;;;;;;3.85;2.20;;;;;;;14.55;63.18;99350.28;10494287;28;20370;-75
2021/07/31 03:53:45;;;;;;;3.25;2.13;;;;;;;14.59;63.02;99354.31;10492204;28;21534;-75
2021/07/31 03:58:51;;;;;;;5.07;2.65;;;;;;;14.39;63.52;99351.16;10510058;28;20234;-75
2021/07/31 04:03:55;;;;;;;6.22;2.25;;;;;;;14.42;63.83;99352.69;10491701;28;20920;-76
2021/07/31 04:09:00;;;;;;;3.58;2.10;;;;;;;14.40;63.96;99342.06;10493541;28;20227;-76
2021/07/31 04:14:43;;;;;;;3.75;1.90;;;;;;;14.27;64.17;99364.19;10420236;28;20260;-77
2021/07/31 04:19:51;;;;;;;2.72;2.17;;;;;;;14.24;64.55;99356.44;10492199;28;20296;-76
2021/07/31 04:24:56;;;;;;;4.25;2.60;;;;;;;14.49;64.13;99359.91;10492484;28;20232;-76
2021/07/31 04:30:00;;;;;;;6.20;2.30;;;;;;;14.29;64.50;99354.06;10510306;28;20236;-76
2021/07/31 04:35:04;;;;;;;6.07;2.72;;;;;;;14.51;64.32;99347.09;10490984;28;20348;-76
2021/07/31 04:40:08;;;;;;;4.63;2.05;;;;;;;14.31;64.50;99346.59;10511279;28;20259;-77
2021/07/31 04:45:12;;;;;;;2.40;2.20;;;;;;;14.51;63.87;99338.97;10509323;28;20327;-74
2021/07/31 04:50:16;;;;;;;7.47;2.78;;;;;;;14.63;64.10;99349.41;10509783;28;20312;-76
2021/07/31 04:55:19;;;;;;;4.18;2.58;;;;;;;14.88;63.38;99348.25;10516595;28;20223;-76
2021/07/31 05:00:23;;;;;;;7.10;2.33;;;;;;;14.97;62.91;99341.75;10516968;28;20231;-76
2021/07/31 05:05:26;;;;;;;4.10;2.42;;;;;;;15.05;62.92;99343.59;10498430;28;20247;-76
2021/07/31 05:10:29;;;;;;;15.98;2.50;;;;;;;14.81;63.24;99356.25;10491954;28;20298;-77
2021/07/31 05:15:33;;;;;;;6.03;2.47;;;;;;;14.94;62.75;99347.53;10501800;28;20297;-77
2021/07/31 05:20:40;;;;;;;8.15;2.78;;;;;;;14.95;62.99;99370.03;10456966;28;20371;-77
2021/07/31 05:25:44;;;;;;;5.47;2.83;;;;;;;15.03;62.68;99367.28;10458152;28;20229;-77
2021/07/31 05:30:48;;;;;;;4.63;2.67;;;;;;;14.93;63.27;99363.94;10454123;28;20236;-77
2021/07/31 05:35:52;;;;;;;6.32;2.38;;;;;;;15.13;62.45;99340.00;10450624;28;20297;-77
2021/07/31 05:40:55;;;;;;;4.90;2.72;;;;;;;15.04;62.38;99350.03;10449107;28;20236;-76
2021/07/31 05:45:59;;;;;;;3.35;2.10;;;;;;;15.24;61.73;99353.94;10438054;28;20229;-77
2021/07/31 05:51:02;;;;;;;4.25;2.67;;;;;;;15.39;61.73;99359.47;10440095;28;20732;-78
2021/07/31 05:56:07;;;;;;;3.53;2.40;;;;;;;15.33;61.48;99356.59;10436440;28;20287;-76
2021/07/31 06:01:12;;;;;;;3.75;2.70;;;;;;;15.40;60.79;99373.81;10432208;28;20948;-76
2021/07/31 06:06:15;;;;;;;4.93;2.40;;;;;;;15.15;61.16;99367.72;10431705;28;20610;-76
2021/07/31 06:11:18;;;;;;;3.55;2.47;;;;;;;15.70;60.39;99367.47;10431305;28;20237;-76
2021/07/31 06:16:24;;;;;;;4.63;2.42;;;;;;;15.57;60.05;99369.13;10430634;28;20232;-76
2021/07/31 06:21:27;;;;;;;3.28;2.20;;;;;;;15.51;60.49;99373.41;10439950;28;20789;-76
2021/07/31 06:26:29;;;;;;;5.15;2.50;;;;;;;15.43;60.28;99355.34;10473438;28;22048;-76
2021/07/31 06:31:34;;;;;;;3.20;2.33;;;;;;;15.43;60.34;99360.75;10471078;28;20293;-76
2021/07/31 06:36:37;;;;;;;4.05;2.67;;;;;;;15.34;60.75;99361.00;10471852;28;20228;-76
2021/07/31 06:41:40;;;;;;;2.67;2.17;;;;;;;15.23;60.51;99365.78;10469788;28;20586;-76
2021/07/31 06:46:44;;;;;;;2.90;2.03;;;;;;;15.61;60.05;99411.91;10471223;28;20232;-76
2021/07/31 06:51:48;;;;;;;7.05;2.83;;;;;;;15.46;60.19;99379.34;10497716;22;20595;-73
2021/07/31 06:56:51;;;;;;;5.53;2.03;;;;;;;15.65;59.84;99385.31;10471538;28;20201;-73
2021/07/31 07:01:55;;;;;;;3.35;2.78;;;;;;;15.83;59.40;99390.41;10470444;28;20232;-72
2021/07/31 07:06:59;;;;;;;2.42;1.65;;;;;;;15.11;61.22;99380.75;10471360;28;20217;-73
2021/07/31 07:12:02;;;;;;;3.95;2.22;;;;;;;15.18;61.54;99388.97;10471549;28;20304;-72
2021/07/31 07:17:07;;;;;;;5.03;2.70;;;;;;;15.07;61.64;99405.63;10469881;28;20205;-73
2021/07/31 07:22:09;;;;;;;3.22;2.67;;;;;;;15.01;62.50;99407.16;10468878;28;20236;-73
2021/07/31 07:27:12;;;;;;;3.10;2.80;;;;;;;14.91;63.08;99401.97;10469765;28;20218;-73
2021/07/31 07:32:16;;;;;;;3.40;2.42;;;;;;;15.99;60.49;99411.94;10470173;28;20220;-73
2021/07/31 07:37:20;;;;;;;4.30;2.78;;;;;;;15.99;59.88;99417.34;10469678;28;20208;-73
2021/07/31 07:42:23;;;;;;;4.25;3.08;;;;;;;15.65;61.11;99418.63;10473603;28;20216;-73
2021/07/31 07:47:28;;;;;;;6.30;3.50;;;;;;;15.60;61.89;99412.06;10468565;28;20217;-73
2021/07/31 07:52:30;;;;;;;3.22;2.92;;;;;;;15.38;62.33;99414.56;10467333;28;20591;-73
2021/07/31 07:57:33;;;;;;;3.60;3.30;;;;;;;15.80;62.19;99413.28;10468731;28;20189;-73
2021/07/31 08:02:38;;;;;;;4.43;2.85;;;;;;;15.45;62.87;99420.13;10483988;28;20232;-73
2021/07/31 08:07:43;;;;;;;3.40;3.08;;;;;;;16.03;61.11;99418.66;10466828;28;20224;-73
2021/07/31 08:12:46;;;;;;;9.88;3.60;;;;;;;17.02;58.82;99421.16;10469299;28;20236;-73
2021/07/31 08:17:50;;;;;;;3.42;2.90;;;;;;;17.26;57.87;99420.00;10469197;28;20185;-73
2021/07/31 08:22:53;;;;;;;5.32;3.10;;;;;;;16.45;60.12;99419.13;10485247;28;20221;-72
2021/07/31 08:27:56;;;;;;;5.30;3.30;;;;;;;16.34;60.87;99432.09;10475316;28;20212;-73
2021/07/31 08:33:01;;;;;;;5.70;3.72;;;;;;;16.22;61.03;99422.72;10476657;28;20687;-73
2021/07/31 08:38:06;;;;;;;6.20;3.80;;;;;;;16.88;59.30;99424.72;10474403;28;20227;-74
2021/07/31 08:43:10;;;;;;;6.95;3.97;;;;;;;17.14;58.60;99419.66;10475767;28;20212;-73
2021/07/31 08:48:15;;;;;;;4.88;3.92;;;;;;;16.70;60.33;99422.38;10475385;28;20225;-73
2021/07/31 08:53:22;;;;;;;3.25;3.03;;;;;;;16.31;61.56;99435.16;10475494;28;20232;-73
2021/07/31 08:58:25;;;;;;;6.13;4.15;;;;;;;16.02;62.49;99449.47;10473764;28;20211;-73
2021/07/31 09:03:29;;;;;;;7.18;4.28;;;;;;;15.70;62.71;99451.41;10472440;28;20206;-73
2021/07/31 09:08:51;;;;;;;9.95;4.90;;;;;;;15.83;62.99;99460.81;10470895;28;20209;-73
2021/07/31 09:14:11;;;;;;;5.47;3.95;;;;;;;16.36;60.52;99459.00;10471377;28;20224;-73
2021/07/31 09:19:17;;;;;;;4.70;4.20;;;;;;;17.49;57.51;99471.41;10474635;28;20192;-73
2021/07/31 09:24:22;;;;;;;5.50;4.80;;;;;;;17.53;57.82;99452.88;10474691;28;20677;-72
2021/07/31 09:29:27;;;;;;;6.45;3.95;;;;;;;17.85;55.96;99457.81;10476476;28;20213;-73
2021/07/31 09:34:33;;;;;;;7.00;3.67;;;;;;;17.99;55.74;99453.38;10474803;28;20218;-73
2021/07/31 09:39:50;;;;;;;4.35;3.95;;;;;;;17.62;57.11;99457.16;10475101;28;20202;-73
2021/07/31 09:44:53;;;;;;;3.97;3.55;;;;;;;17.36;56.65;99465.81;10474168;28;20197;-73
2021/07/31 09:49:58;;;;;;;3.97;3.30;;;;;;;18.12;55.66;99450.75;10473570;28;20209;-73
2021/07/31 09:55:01;;;;;;;5.15;3.40;;;;;;;18.01;54.65;99466.75;10473305;28;20275;-73
2021/07/31 10:00:06;;;;;;;5.07;3.33;;;;;;;17.53;57.50;99491.72;10473111;28;20244;-73
2021/07/31 10:05:18;;;;;;;4.40;3.92;;;;;;;15.95;64.64;99483.72;10472751;28;20213;-74
2021/07/31 10:10:23;;;;;;;7.28;5.10;;;;;;;16.00;69.22;99484.03;10472775;28;20256;-73
2021/07/31 10:15:26;;;;;;;4.68;4.15;;;;;;;16.56;66.25;99498.13;10472454;28;20189;-73
2021/07/31 10:20:31;;;;;;;5.03;2.60;;;;;;;17.00;61.39;99513.59;10472813;28;20213;-73
2021/07/31 10:25:34;;;;;;;3.95;3.42;;;;;;;17.61;58.97;99480.75;10472079;28;20209;-74
2021/07/31 10:30:38;;;;;;;5.72;3.88;;;;;;;18.02;57.05;99463.00;10472264;28;20576;-73
2021/07/31 10:35:43;;;;;;;3.03;2.10;;;;;;;18.23;55.41;99525.47;10472422;28;20188;-73
2021/07/31 10:40:47;;;;;;;3.40;3.10;;;;;;;18.78;55.09;99496.66;10471880;28;20704;-73
2021/07/31 10:45:50;;;;;;;4.55;3.80;;;;;;;18.83;53.65;99478.91;10471231;28;20274;-73
2021/07/31 10:50:55;;;;;;;5.03;3.33;;;;;;;18.49;56.21;99507.75;10471017;28;20250;-73
2021/07/31 10:56:04;;;;;;;4.18;2.88;;;;;;;17.50;57.24;99467.69;10470933;28;20239;-74
2021/07/31 11:01:23;;;;;;;7.20;3.30;;;;;;;18.79;54.55;99492.09;10471119;28;20209;-73
2021/07/31 11:06:27;;;;;;;5.22;2.92;;;;;;;19.64;53.69;99499.00;10471464;28;20201;-72
2021/07/31 11:11:34;;;;;;;3.00;2.60;;;;;;;19.98;50.99;99486.28;10478298;28;20578;-73
2021/07/31 11:16:37;;;;;;;2.78;2.45;;;;;;;19.55;52.21;99510.22;10469675;28;20224;-73
2021/07/31 11:21:49;;;;;;;3.88;2.47;;;;;;;18.48;53.45;99517.75;10470655;28;20278;-72
2021/07/31 11:26:54;;;;;;;2.60;2.40;;;;;;;18.73;53.33;99507.28;10468598;28;20323;-73
2021/07/31 11:32:00;;;;;;;2.95;2.75;;;;;;;19.20;52.13;99532.94;10470272;28;20631;-73
2021/07/31 11:37:06;;;;;;;7.18;2.78;;;;;;;18.31;54.69;99519.06;10470285;28;20192;-73
2021/07/31 11:42:09;;;;;;;5.93;3.90;;;;;;;17.68;55.13;99513.41;10470369;28;20213;-74
2021/07/31 11:47:11;;;;;;;4.95;3.20;;;;;;;17.69;55.26;99539.53;10470771;28;20284;-73
2021/07/31 11:52:16;;;;;;;2.92;2.67;;;;;;;17.68;54.49;99518.84;10469974;28;20579;-72
2021/07/31 11:57:18;;;;;;;3.80;3.30;;;;;;;17.67;55.64;99528.03;10467762;28;20193;-73
2021/07/31 12:02:34;;;;;;;6.50;3.58;;;;;;;17.12;60.55;99534.81;10474969;28;20292;-73
2021/07/31 12:07:38;;;;;;;3.17;2.88;;;;;;;17.28;58.00;99542.78;10478466;28;20205;-72
2021/07/31 12:12:43;;;;;;;5.43;3.15;;;;;;;17.46;56.54;99539.66;10476358;28;20208;-72
2021/07/31 12:18:03;;;;;;;4.53;3.80;;;;;;;18.24;54.73;99538.06;10476144;28;20205;-73
2021/07/31 12:23:08;;;;;;;3.45;2.95;;;;;;;17.59;55.75;99539.00;10475104;28;20233;-73
2021/07/31 12:28:13;;;;;;;3.60;3.13;;;;;;;18.28;54.32;99562.97;10476035;28;20243;-73
2021/07/31 12:33:18;;;;;;;3.30;2.83;;;;;;;17.60;56.04;99525.22;10476014;28;20296;-73
2021/07/31 12:38:24;;;;;;;3.15;2.85;;;;;;;17.77;55.66;99535.84;10475602;28;20194;-73
2021/07/31 12:43:29;;;;;;;5.43;3.47;;;;;;;17.88;56.38;99551.63;10475154;28;20778;-75
2021/07/31 12:48:32;;;;;;;5.68;3.65;;;;;;;17.24;60.22;99602.00;10474810;28;20229;-73
2021/07/31 12:53:37;;;;;;;4.72;4.10;;;;;;;15.55;69.49;99591.25;10475610;28;20224;-73
2021/07/31 12:58:40;;;;;;;5.63;5.03;;;;;;;15.79;69.45;99603.81;10474936;28;20193;-73
2021/07/31 13:03:45;;;;;;;7.15;4.95;;;;;;;16.08;68.05;99595.00;10474685;28;20213;-73
2021/07/31 13:08:49;;;;;;;5.72;4.72;;;;;;;16.43;65.80;99595.50;10475024;28;20217;-72
2021/07/31 13:13:52;;;;;;;4.20;3.90;;;;;;;16.54;64.67;99599.63;10474554;28;20285;-73
2021/07/31 13:18:55;;;;;;;5.18;4.65;;;;;;;16.27;65.42;99636.25;10473876;28;20193;-73
2021/07/31 13:24:02;;;;;;;7.85;5.93;;;;;;;15.70;73.07;99621.97;10473483;28;20220;-73
2021/07/31 13:29:04;;;;;;;7.07;6.03;;;;;;;16.16;70.42;99621.22;10474096;28;20217;-73
2021/07/31 13:34:07;;;;;;;8.68;6.32;;;;;;;17.89;67.16;99613.94;10473116;28;20209;-72
2021/07/31 13:39:12;;;;;;;7.57;5.10;;;;;;;20.13;60.67;99595.97;10472061;28;20681;-73
2021/07/31 13:44:17;;;;;;;5.30;4.30;;;;;;;19.88;55.21;99606.59;10473066;28;20209;-73
2021/07/31 13:49:20;;;;;;;5.65;4.13;;;;;;;19.61;55.13;99602.91;10473430;28;20220;-73
2021/07/31 13:54:24;;;;;;;5.05;3.83;;;;;;;20.08;52.32;99617.56;10472854;28;20228;-73
2021/07/31 13:59:28;;;;;;;3.40;3.10;;;;;;;18.73;56.03;99613.38;10473286;28;20673;-73
2021/07/31 14:04:31;;;;;;;3.47;3.20;;;;;;;19.01;55.73;99604.41;10473281;28;20205;-73
2021/07/31 14:09:35;;;;;;;4.63;3.90;;;;;;;18.58;55.66;99608.00;10472677;28;20209;-73
2021/07/31 14:14:38;;;;;;;4.75;3.90;;;;;;;17.72;59.81;99617.91;10472265;28;20190;-72
2021/07/31 14:19:41;;;;;;;5.82;4.97;;;;;;;16.34;68.02;99627.19;10473055;28;20198;-72
2021/07/31 14:24:45;;;;;;;10.07;6.10;;;;;;;15.16;77.86;99667.75;10473130;28;20189;-72
2021/07/31 14:29:48;;;;;;;11.90;8.00;;;;;;;14.49;87.84;99673.34;10472889;28;20206;-72
2021/07/31 14:34:51;;;;;;;11.52;7.90;;;;;;;15.46;85.08;99655.38;10476374;28;20192;-73
2021/07/31 14:39:55;;;;;;;10.98;8.95;;;;;;;17.08;84.77;99653.69;10471948;28;20727;-73
2021/07/31 14:44:58;;;;;;;10.07;8.07;;;;;;;19.36;78.79;99643.41;10471434;28;20194;-73
2021/07/31 14:50:01;;;;;;;11.18;7.32;;;;;;;20.18;68.55;99641.69;10471434;28;20217;-72
2021/07/31 14:55:06;;;;;;;6.90;6.20;;;;;;;20.27;65.22;99636.91;10471075;28;20198;-72
2021/07/31 15:00:10;;;;;;;8.27;6.10;;;;;;;20.00;65.91;99634.09;10469962;28;20216;-72
2021/07/31 15:05:13;;;;;;;7.07;4.93;;;;;;;19.30;63.71;99632.44;10471748;28;20193;-71
2021/07/31 15:10:17;;;;;;;6.75;4.90;;;;;;;17.79;67.95;99650.59;10470887;28;20248;-73
2021/07/31 15:15:22;;;;;;;6.70;4.65;;;;;;;17.02;72.08;99668.84;10470649;28;20280;-72
2021/07/31 15:20:24;;;;;;;6.13;3.92;;;;;;;18.58;66.08;99651.50;10469252;28;20227;-72
2021/07/31 15:25:29;;;;;;;4.90;3.83;;;;;;;19.20;63.13;99636.38;10470308;28;20197;-72
2021/07/31 15:30:32;;;;;;;3.67;3.20;;;;;;;19.43;60.89;99649.69;10468957;28;20611;-73
2021/07/31 15:35:35;;;;;;;6.95;3.17;;;;;;;20.35;58.36;99639.47;10469047;28;20186;-73
2021/07/31 15:40:41;;;;;;;4.25;3.20;;;;;;;20.49;57.96;99640.34;10470161;28;20569;-73
2021/07/31 15:45:44;;;;;;;4.03;2.90;;;;;;;18.86;60.13;99644.47;10469290;28;20200;-73
2021/07/31 15:50:48;;;;;;;4.05;3.05;;;;;;;18.07;61.85;99656.19;10469492;28;20221;-73
2021/07/31 15:55:52;;;;;;;3.58;3.15;;;;;;;17.47;63.17;99656.22;10469354;28;20528;-72
2021/07/31 16:00:55;;;;;;;4.47;3.08;;;;;;;17.49;63.51;99653.31;10469583;28;20296;-72
2021/07/31 16:05:58;;;;;;;3.38;2.95;;;;;;;17.45;63.82;99654.72;10468900;28;20190;-72
2021/07/31 16:11:08;;;;;;;5.00;2.97;;;;;;;17.86;63.12;99665.94;10469485;28;20217;-72
2021/07/31 16:16:16;;;;;;;3.72;2.50;;;;;;;18.41;59.83;99654.69;10468853;28;20186;-72
2021/07/31 16:21:23;;;;;;;2.45;1.98;;;;;;;18.43;59.29;99664.34;10467581;28;20226;-72
2021/07/31 16:26:28;;;;;;;1.98;1.60;;;;;;;17.70;61.07;99671.56;10468363;28;20626;-72
2021/07/31 16:31:31;;;;;;;2.00;1.90;;;;;;;17.67;62.49;99682.81;10468426;28;20294;-72
2021/07/31 16:36:33;;;;;;;2.53;2.33;;;;;;;17.97;62.10;99672.81;10468216;28;20265;-72
2021/07/31 16:41:38;;;;;;;3.63;2.80;;;;;;;17.67;63.46;99674.66;10468305;28;20205;-72
2021/07/31 16:46:40;;;;;;;4.78;3.20;;;;;;;17.59;63.75;99672.06;10470813;28;20193;-72
2021/07/31 16:51:43;;;;;;;5.13;3.60;;;;;;;18.62;61.74;99678.31;10476386;28;20221;-72
2021/07/31 16:56:50;;;;;;;5.07;3.13;;;;;;;19.35;58.55;99649.88;10475526;28;20300;-73
2021/07/31 17:01:53;;;;;;;4.78;2.95;;;;;;;19.80;56.24;99669.44;10475406;28;20291;-74
2021/07/31 17:06:56;;;;;;;4.38;3.30;;;;;;;21.48;51.56;99671.44;10474762;28;20224;-73
2021/07/31 17:12:00;;;;;;;2.97;2.35;;;;;;;19.20;56.94;99663.59;10474778;28;20223;-73
2021/07/31 17:17:03;;;;;;;4.93;2.75;;;;;;;18.92;58.57;99660.00;10474165;28;20204;-73
2021/07/31 17:22:07;;;;;;;3.20;2.72;;;;;;;18.47;57.96;99675.66;10474314;28;20213;-73
2021/07/31 17:27:11;;;;;;;3.50;3.03;;;;;;;19.87;54.96;99664.00;10473726;28;20566;-76
2021/07/31 17:32:14;;;;;;;2.97;2.60;;;;;;;21.84;49.46;99655.38;10473900;28;20205;-73
2021/07/31 17:37:18;;;;;;;2.67;2.47;;;;;;;23.41;45.28;99658.34;10473734;28;20234;-74
2021/07/31 17:42:22;;;;;;;3.83;2.53;;;;;;;22.78;46.17;99674.91;10473951;28;20216;-73
2021/07/31 17:47:25;;;;;;;2.55;2.30;;;;;;;20.93;50.44;99672.50;10471914;28;20197;-72
2021/07/31 17:52:29;;;;;;;2.90;2.40;;;;;;;19.46;55.46;99665.63;10473563;28;20221;-74
2021/07/31 17:57:33;;;;;;;3.17;2.72;;;;;;;18.28;58.42;99675.25;10472727;28;20182;-74
2021/07/31 18:02:36;;;;;;;4.13;2.67;;;;;;;17.57;60.90;99672.22;10473370;28;20223;-74
2021/07/31 18:07:40;;;;;;;3.13;2.78;;;;;;;17.03;62.80;99670.56;10472642;28;20292;-74
2021/07/31 18:12:44;;;;;;;3.65;2.83;;;;;;;17.19;62.95;99685.00;10472837;28;20405;-74
2021/07/31 18:17:47;;;;;;;3.20;2.90;;;;;;;17.02;63.94;99681.59;10472294;28;20201;-74
2021/07/31 18:22:51;;;;;;;5.25;3.50;;;;;;;17.07;64.03;99678.31;10473065;28;20213;-72
2021/07/31 18:27:55;;;;;;;3.42;3.08;;;;;;;17.09;64.15;99668.13;10470813;28;20217;-73
2021/07/31 18:32:58;;;;;;;3.47;3.05;;;;;;;16.86;64.85;99682.56;10472220;28;20213;-73
2021/07/31 18:38:00;;;;;;;3.90;3.50;;;;;;;16.59;65.71;99697.50;10470193;28;20658;-73
2021/07/31 18:43:05;;;;;;;4.60;3.33;;;;;;;16.44;66.23;99696.59;10471716;28;20584;-73
2021/07/31 18:48:07;;;;;;;4.63;3.85;;;;;;;16.59;65.80;99692.09;10471363;28;20554;-74
2021/07/31 18:53:10;;;;;;;5.20;4.20;;;;;;;16.34;66.58;99703.09;10439874;22;20242;-74
2021/07/31 18:58:15;;;;;;;5.00;3.85;;;;;;;16.58;66.04;99698.53;10374607;28;20594;-75
2021/07/31 19:03:18;;;;;;;4.60;3.85;;;;;;;16.31;66.98;99708.03;10393700;28;20206;-75
2021/07/31 19:08:20;;;;;;;5.45;3.78;;;;;;;16.45;66.91;99714.56;10392291;28;20207;-76
2021/07/31 19:13:27;;;;;;;5.07;4.22;;;;;;;16.41;66.78;99716.78;10375623;28;20226;-75
2021/07/31 19:18:30;;;;;;;8.25;4.55;;;;;;;16.21;67.33;99731.75;10394740;28;20210;-75
2021/07/31 19:23:33;;;;;;;5.22;4.32;;;;;;;16.34;67.06;99738.31;10376505;28;20218;-75
2021/07/31 19:28:39;;;;;;;6.75;3.70;;;;;;;16.51;66.92;99747.22;10390941;28;20236;-76
2021/07/31 19:33:43;;;;;;;3.97;3.58;;;;;;;16.46;67.17;99743.38;10391387;28;20628;-76
2021/07/31 19:38:46;;;;;;;4.22;3.60;;;;;;;16.03;68.92;99769.94;10391218;28;20217;-75
2021/07/31 19:43:50;;;;;;;4.25;3.85;;;;;;;15.39;75.48;99775.34;10373478;28;20313;-75
2021/07/31 19:48:53;;;;;;;6.45;3.75;;;;;;;15.25;77.49;99780.38;10373962;28;20218;-74
2021/07/31 19:53:56;;;;;;;8.48;4.03;;;;;;;14.97;77.30;99766.31;10373686;28;20660;-80
2021/07/31 19:59:00;;;;;;;5.43;4.07;;;;;;;14.56;78.97;99763.56;10373871;28;20679;-77
2021/07/31 20:04:03;;;;;;;5.28;4.13;;;;;;;14.70;80.56;99769.31;10373979;28;20218;-75
2021/07/31 20:09:06;;;;;;;5.13;4.30;;;;;;;14.71;80.33;99760.22;10374352;28;20242;-77
2021/07/31 20:14:10;;;;;;;5.68;4.18;;;;;;;14.72;80.48;99762.75;10391656;28;20241;-76
2021/07/31 20:19:13;;;;;;;7.38;4.63;;;;;;;14.71;80.60;99766.47;10392301;28;20191;-75
2021/07/31 20:24:17;;;;;;;6.88;4.78;;;;;;;14.72;80.90;99770.84;10380144;28;20223;-76
2021/07/31 20:29:21;;;;;;;5.93;4.50;;;;;;;14.67;80.55;99770.50;10381116;28;20268;-76
2021/07/31 20:34:26;;;;;;;7.03;4.95;;;;;;;14.61;81.19;99776.56;10398336;28;20211;-75
2021/07/31 20:39:31;;;;;;;10.90;5.50;;;;;;;14.57;80.67;99775.22;10397601;28;20202;-77
2021/07/31 20:44:37;;;;;;;10.27;5.60;;;;;;;14.55;80.96;99771.84;10397164;28;20223;-76
2021/07/31 20:49:40;;;;;;;7.70;5.80;;;;;;;14.50;80.88;99772.31;10378956;28;20223;-76
2021/07/31 20:54:46;;;;;;;7.97;5.47;;;;;;;14.47;81.19;99783.47;10379427;28;20234;-76
2021/07/31 20:59:50;;;;;;;7.35;5.38;;;;;;;14.42;81.29;99777.69;10401165;28;20201;-75
2021/07/31 21:04:53;;;;;;;7.72;5.70;;;;;;;14.44;81.07;99780.25;10398754;28;20219;-74
2021/07/31 21:09:56;;;;;;;8.10;5.35;;;;;;;14.41;80.97;99783.28;10399070;28;20221;-76
2021/07/31 21:15:01;;;;;;;8.20;5.70;;;;;;;14.34;80.84;99775.81;10393151;28;20191;-75
2021/07/31 21:20:06;;;;;;;7.93;5.32;;;;;;;14.29;80.88;99782.69;10393667;28;20183;-76
2021/07/31 21:25:10;;;;;;;8.15;5.65;;;;;;;14.26;80.83;99785.72;10393206;28;20187;-75
2021/07/31 21:30:14;;;;;;;9.88;5.82;;;;;;;14.21;80.44;99785.38;10392511;28;20211;-76
2021/07/31 21:35:17;;;;;;;9.77;6.78;;;;;;;14.21;80.17;99785.38;10391915;28;20566;-76
2021/07/31 21:40:24;;;;;;;9.15;6.20;;;;;;;14.19;80.36;99792.78;10392983;28;20211;-75
2021/07/31 21:45:29;;;;;;;9.23;6.40;;;;;;;14.09;80.52;99791.03;10376427;28;20206;-76
2021/07/31 21:50:32;;;;;;;9.18;6.38;;;;;;;14.07;80.10;99792.22;10392528;28;20237;-76
2021/07/31 21:55:35;;;;;;;9.25;6.38;;;;;;;14.08;80.07;99797.47;10391331;28;20194;-76
2021/07/31 22:00:41;;;;;;;9.63;6.38;;;;;;;14.16;79.87;99796.66;10393090;28;20218;-75
2021/07/31 22:05:44;;;;;;;9.55;6.25;;;;;;;14.22;79.94;99803.25;10393456;28;20229;-78
2021/07/31 22:10:47;;;;;;;9.18;6.40;;;;;;;14.26;79.93;99799.22;10425564;28;20259;-75
2021/07/31 22:15:51;;;;;;;8.65;6.50;;;;;;;14.26;79.86;99788.41;10398265;28;20194;-76
2021/07/31 22:20:54;;;;;;;9.60;6.78;;;;;;;14.27;79.82;99792.81;10390501;28;20230;-77
2021/07/31 22:25:57;;;;;;;10.30;7.47;;;;;;;14.23;79.84;99786.03;10386513;28;20195;-75
2021/07/31 22:31:01;;;;;;;9.13;7.40;;;;;;;14.27;79.82;99787.41;10402630;28;20222;-74
2021/07/31 22:36:04;;;;;;;8.73;6.57;;;;;;;14.34;79.49;99786.63;10400852;28;20210;-75
2021/07/31 22:41:09;;;;;;;10.50;6.72;;;;;;;14.30;79.31;99779.84;10399697;28;20270;-76
2021/07/31 22:46:14;;;;;;;8.77;6.78;;;;;;;14.23;79.42;99781.47;10398320;28;20191;-75
2021/07/31 22:51:18;;;;;;;10.68;7.13;;;;;;;14.13;79.61;99787.03;10380579;28;20292;-76
2021/07/31 22:56:20;;;;;;;9.63;7.47;;;;;;;14.07;80.29;99781.41;10400795;28;20198;-75
2021/07/31 23:01:24;;;;;;;11.15;7.63;;;;;;;14.08;80.25;99780.41;10379614;28;20214;-77
2021/07/31 23:06:28;;;;;;;12.50;6.85;;;;;;;14.06;80.66;99777.03;10378146;28;20203;-76
2021/07/31 23:11:30;;;;;;;11.07;7.50;;;;;;;14.08;80.29;99777.72;10395619;28;20222;-76
2021/07/31 23:16:35;;;;;;;10.30;7.60;;;;;;;14.04;80.13;99779.91;10378552;28;20597;-75
2021/07/31 23:21:38;;;;;;;10.30;7.85;;;;;;;14.10;80.13;99781.09;10377800;28;20239;-76
2021/07/31 23:26:41;;;;;;;11.18;7.07;;;;;;;14.14;79.88;99787.88;10395237;28;20190;-74
2021/07/31 23:31:45;;;;;;;12.43;7.95;;;;;;;14.13;79.53;99773.53;10378203;28;20271;-75
2021/07/31 23:36:48;;;;;;;11.27;7.50;;;;;;;14.09;79.13;99769.44;10377373;28;20270;-75